<?xml version="1.0" encoding="utf-8"?>
<gpx xmlns:xsi="http://www.w3.org/2001/XMLSchema-instance" xmlns:xsd="http://www.w3.org/2001/XMLSchema" version="1.1" creator="Shapelink.com" xmlns="http://www.topografix.com/GPX/1/1" xmlns:gpxtpx="http://www.garmin.com/xmlschemas/TrackPointExtension/v1">
  <metadata>
    <name>Löpning 7.47 km, 2019-01-16</name>
    <desc></desc>
    <author><name>Marian Moron</name></author> 
    <time>2019-01-16T22:03:52Z</time>
  </metadata>
  <trk>
    <name>Löpning 7.47 km, 2019-01-16</name>
    <trkseg>
      <trkpt lat="51.229976266623" lon="4.4585212972015">
        <ele>2.8</ele>
        <time>2019-01-16T22:03:52Z</time>
      </trkpt>
      <trkpt lat="51.230035610497" lon="4.4588149990886">
        <ele>2.6</ele>
        <time>2019-01-16T22:03:59Z</time>
      </trkpt>
      <trkpt lat="51.230053380132" lon="4.4588757678866">
        <ele>2.6</ele>
        <time>2019-01-16T22:04:01Z</time>
      </trkpt>
      <trkpt lat="51.230066120625" lon="4.4588941242546">
        <ele>2.6</ele>
        <time>2019-01-16T22:04:02Z</time>
      </trkpt>
      <trkpt lat="51.230101073161" lon="4.4588947948068">
        <ele>2.6</ele>
        <time>2019-01-16T22:04:04Z</time>
      </trkpt>
      <trkpt lat="51.230122866109" lon="4.4588963873684">
        <ele>2.4</ele>
        <time>2019-01-16T22:04:05Z</time>
      </trkpt>
      <trkpt lat="51.230170894414" lon="4.4588933698833">
        <ele>2.4</ele>
        <time>2019-01-16T22:04:07Z</time>
      </trkpt>
      <trkpt lat="51.230192352086" lon="4.4588923640549">
        <ele>2.4</ele>
        <time>2019-01-16T22:04:08Z</time>
      </trkpt>
      <trkpt lat="51.230213390663" lon="4.458887167275">
        <ele>2.2</ele>
        <time>2019-01-16T22:04:09Z</time>
      </trkpt>
      <trkpt lat="51.230259742588" lon="4.4588752649724">
        <ele>2.2</ele>
        <time>2019-01-16T22:04:11Z</time>
      </trkpt>
      <trkpt lat="51.230286564678" lon="4.4588697329164">
        <ele>2</ele>
        <time>2019-01-16T22:04:12Z</time>
      </trkpt>
      <trkpt lat="51.230311961845" lon="4.4588627759367">
        <ele>2</ele>
        <time>2019-01-16T22:04:13Z</time>
      </trkpt>
      <trkpt lat="51.230504745618" lon="4.4588339421898">
        <ele>1.4</ele>
        <time>2019-01-16T22:04:21Z</time>
      </trkpt>
      <trkpt lat="51.230663582683" lon="4.4587666355073">
        <ele>1.2</ele>
        <time>2019-01-16T22:04:27Z</time>
      </trkpt>
      <trkpt lat="51.230742875487" lon="4.4587489496917">
        <ele>1.4</ele>
        <time>2019-01-16T22:04:30Z</time>
      </trkpt>
      <trkpt lat="51.230792915449" lon="4.4587304256856">
        <ele>1.8</ele>
        <time>2019-01-16T22:04:32Z</time>
      </trkpt>
      <trkpt lat="51.230849493295" lon="4.4587109796703">
        <ele>2</ele>
        <time>2019-01-16T22:04:34Z</time>
      </trkpt>
      <trkpt lat="51.230969857424" lon="4.4586506299675">
        <ele>2.6</ele>
        <time>2019-01-16T22:04:39Z</time>
      </trkpt>
      <trkpt lat="51.231020903215" lon="4.4586265739053">
        <ele>3</ele>
        <time>2019-01-16T22:04:41Z</time>
      </trkpt>
      <trkpt lat="51.231141183525" lon="4.4585525617003">
        <ele>3.8</ele>
        <time>2019-01-16T22:04:46Z</time>
      </trkpt>
      <trkpt lat="51.231190469116" lon="4.4585275836289">
        <ele>4</ele>
        <time>2019-01-16T22:04:48Z</time>
      </trkpt>
      <trkpt lat="51.231254590675" lon="4.4585115741938">
        <ele>4.4</ele>
        <time>2019-01-16T22:04:50Z</time>
      </trkpt>
      <trkpt lat="51.231288202107" lon="4.45850931108">
        <ele>4.6</ele>
        <time>2019-01-16T22:04:51Z</time>
      </trkpt>
      <trkpt lat="51.231432957575" lon="4.458464384079">
        <ele>4.8</ele>
        <time>2019-01-16T22:04:56Z</time>
      </trkpt>
      <trkpt lat="51.231460031122" lon="4.4584530685097">
        <ele>4.8</ele>
        <time>2019-01-16T22:04:57Z</time>
      </trkpt>
      <trkpt lat="51.231510238722" lon="4.4584436807781">
        <ele>4.6</ele>
        <time>2019-01-16T22:04:59Z</time>
      </trkpt>
      <trkpt lat="51.231531528756" lon="4.4584506377578">
        <ele>4.6</ele>
        <time>2019-01-16T22:05:00Z</time>
      </trkpt>
      <trkpt lat="51.231573102996" lon="4.4584767054766">
        <ele>4.4</ele>
        <time>2019-01-16T22:05:02Z</time>
      </trkpt>
      <trkpt lat="51.231586681679" lon="4.4585083890706">
        <ele>4.6</ele>
        <time>2019-01-16T22:05:03Z</time>
      </trkpt>
      <trkpt lat="51.231606798247" lon="4.4585867598653">
        <ele>4.6</ele>
        <time>2019-01-16T22:05:05Z</time>
      </trkpt>
      <trkpt lat="51.23164543882" lon="4.4588569086045">
        <ele>4.6</ele>
        <time>2019-01-16T22:05:11Z</time>
      </trkpt>
      <trkpt lat="51.231695981696" lon="4.4591470062733">
        <ele>4.2</ele>
        <time>2019-01-16T22:05:18Z</time>
      </trkpt>
      <trkpt lat="51.231757169589" lon="4.4594465754926">
        <ele>3.6</ele>
        <time>2019-01-16T22:05:25Z</time>
      </trkpt>
      <trkpt lat="51.231824140996" lon="4.4597437139601">
        <ele>3.6</ele>
        <time>2019-01-16T22:05:32Z</time>
      </trkpt>
      <trkpt lat="51.231876946986" lon="4.4600336439908">
        <ele>3.4</ele>
        <time>2019-01-16T22:05:38Z</time>
      </trkpt>
      <trkpt lat="51.231949785724" lon="4.4603186286986">
        <ele>3</ele>
        <time>2019-01-16T22:05:46Z</time>
      </trkpt>
      <trkpt lat="51.232052128762" lon="4.4605943094939">
        <ele>3</ele>
        <time>2019-01-16T22:05:54Z</time>
      </trkpt>
      <trkpt lat="51.232122536749" lon="4.4608786236495">
        <ele>3</ele>
        <time>2019-01-16T22:06:02Z</time>
      </trkpt>
      <trkpt lat="51.232205601409" lon="4.4611756782979">
        <ele>3.2</ele>
        <time>2019-01-16T22:06:10Z</time>
      </trkpt>
      <trkpt lat="51.232207613066" lon="4.4615167379379">
        <ele>3</ele>
        <time>2019-01-16T22:06:17Z</time>
      </trkpt>
      <trkpt lat="51.232201661915" lon="4.4617434684187">
        <ele>3.2</ele>
        <time>2019-01-16T22:06:22Z</time>
      </trkpt>
      <trkpt lat="51.232222532853" lon="4.4620488211513">
        <ele>3.2</ele>
        <time>2019-01-16T22:06:30Z</time>
      </trkpt>
      <trkpt lat="51.232239212841" lon="4.4623346440494">
        <ele>3.2</ele>
        <time>2019-01-16T22:06:37Z</time>
      </trkpt>
      <trkpt lat="51.232326803729" lon="4.4626067206264">
        <ele>3</ele>
        <time>2019-01-16T22:06:45Z</time>
      </trkpt>
      <trkpt lat="51.232389668003" lon="4.4629093073308">
        <ele>2.8</ele>
        <time>2019-01-16T22:06:53Z</time>
      </trkpt>
      <trkpt lat="51.232441635802" lon="4.4632172584534">
        <ele>2.8</ele>
        <time>2019-01-16T22:07:00Z</time>
      </trkpt>
      <trkpt lat="51.232469966635" lon="4.4635085295886">
        <ele>2.8</ele>
        <time>2019-01-16T22:07:08Z</time>
      </trkpt>
      <trkpt lat="51.232497543097" lon="4.4638049975038">
        <ele>3</ele>
        <time>2019-01-16T22:07:15Z</time>
      </trkpt>
      <trkpt lat="51.232478348538" lon="4.4641126971692">
        <ele>3</ele>
        <time>2019-01-16T22:07:23Z</time>
      </trkpt>
      <trkpt lat="51.232564346865" lon="4.4643840193748">
        <ele>3</ele>
        <time>2019-01-16T22:07:31Z</time>
      </trkpt>
      <trkpt lat="51.232719914988" lon="4.4645521603525">
        <ele>3</ele>
        <time>2019-01-16T22:07:38Z</time>
      </trkpt>
      <trkpt lat="51.232889732346" lon="4.4647343829274">
        <ele>3.2</ele>
        <time>2019-01-16T22:07:46Z</time>
      </trkpt>
      <trkpt lat="51.232995679602" lon="4.4648703373969">
        <ele>3.4</ele>
        <time>2019-01-16T22:07:52Z</time>
      </trkpt>
      <trkpt lat="51.233090059832" lon="4.4649495463818">
        <ele>3.6</ele>
        <time>2019-01-16T22:07:57Z</time>
      </trkpt>
      <trkpt lat="51.233006659895" lon="4.4652186054736">
        <ele>3.8</ele>
        <time>2019-01-16T22:08:04Z</time>
      </trkpt>
      <trkpt lat="51.232902305201" lon="4.4654898438603">
        <ele>3.6</ele>
        <time>2019-01-16T22:08:12Z</time>
      </trkpt>
      <trkpt lat="51.232790155336" lon="4.4657523650676">
        <ele>3</ele>
        <time>2019-01-16T22:08:20Z</time>
      </trkpt>
      <trkpt lat="51.232699882239" lon="4.4659174885601">
        <ele>3</ele>
        <time>2019-01-16T22:08:28Z</time>
      </trkpt>
      <trkpt lat="51.232597539201" lon="4.4661931693554">
        <ele>3</ele>
        <time>2019-01-16T22:08:37Z</time>
      </trkpt>
      <trkpt lat="51.232485305518" lon="4.4664175529033">
        <ele>2.6</ele>
        <time>2019-01-16T22:08:43Z</time>
      </trkpt>
      <trkpt lat="51.23237608932" lon="4.466670518741">
        <ele>3.2</ele>
        <time>2019-01-16T22:08:50Z</time>
      </trkpt>
      <trkpt lat="51.232255389914" lon="4.4669309444726">
        <ele>4</ele>
        <time>2019-01-16T22:08:58Z</time>
      </trkpt>
      <trkpt lat="51.232175091282" lon="4.4671878498048">
        <ele>4</ele>
        <time>2019-01-16T22:09:05Z</time>
      </trkpt>
      <trkpt lat="51.23221591115" lon="4.4674830604345">
        <ele>4</ele>
        <time>2019-01-16T22:09:13Z</time>
      </trkpt>
      <trkpt lat="51.232310459018" lon="4.4677595794201">
        <ele>4</ele>
        <time>2019-01-16T22:09:21Z</time>
      </trkpt>
      <trkpt lat="51.232425710186" lon="4.4679927639663">
        <ele>3.6</ele>
        <time>2019-01-16T22:09:29Z</time>
      </trkpt>
      <trkpt lat="51.232533752918" lon="4.468232402578">
        <ele>3.2</ele>
        <time>2019-01-16T22:09:36Z</time>
      </trkpt>
      <trkpt lat="51.232652440667" lon="4.4684499129653">
        <ele>2.8</ele>
        <time>2019-01-16T22:09:43Z</time>
      </trkpt>
      <trkpt lat="51.232760986313" lon="4.4686983525753">
        <ele>2.4</ele>
        <time>2019-01-16T22:09:50Z</time>
      </trkpt>
      <trkpt lat="51.23281580396" lon="4.4688526634127">
        <ele>2.4</ele>
        <time>2019-01-16T22:09:54Z</time>
      </trkpt>
      <trkpt lat="51.232859641314" lon="4.468948720023">
        <ele>2.4</ele>
        <time>2019-01-16T22:09:57Z</time>
      </trkpt>
      <trkpt lat="51.232981011271" lon="4.4692003447562">
        <ele>2.2</ele>
        <time>2019-01-16T22:10:05Z</time>
      </trkpt>
      <trkpt lat="51.233079414815" lon="4.4694406539202">
        <ele>2</ele>
        <time>2019-01-16T22:10:12Z</time>
      </trkpt>
      <trkpt lat="51.233188714832" lon="4.4697131495923">
        <ele>2.2</ele>
        <time>2019-01-16T22:10:20Z</time>
      </trkpt>
      <trkpt lat="51.233296841383" lon="4.4699479267001">
        <ele>2.4</ele>
        <time>2019-01-16T22:10:27Z</time>
      </trkpt>
      <trkpt lat="51.233407733962" lon="4.4702036585659">
        <ele>2.6</ele>
        <time>2019-01-16T22:10:35Z</time>
      </trkpt>
      <trkpt lat="51.233529774472" lon="4.4704505056143">
        <ele>3</ele>
        <time>2019-01-16T22:10:43Z</time>
      </trkpt>
      <trkpt lat="51.233662124723" lon="4.4707005377859">
        <ele>3.2</ele>
        <time>2019-01-16T22:10:51Z</time>
      </trkpt>
      <trkpt lat="51.23378441669" lon="4.4709429424256">
        <ele>3.6</ele>
        <time>2019-01-16T22:10:58Z</time>
      </trkpt>
      <trkpt lat="51.233902014792" lon="4.4712022785097">
        <ele>3.8</ele>
        <time>2019-01-16T22:11:06Z</time>
      </trkpt>
      <trkpt lat="51.234019696712" lon="4.4714509695768">
        <ele>4</ele>
        <time>2019-01-16T22:11:13Z</time>
      </trkpt>
      <trkpt lat="51.234123380855" lon="4.4717222917825">
        <ele>4.2</ele>
        <time>2019-01-16T22:11:20Z</time>
      </trkpt>
      <trkpt lat="51.234202086926" lon="4.4718891754746">
        <ele>4.2</ele>
        <time>2019-01-16T22:11:25Z</time>
      </trkpt>
      <trkpt lat="51.234311303124" lon="4.4721507746726">
        <ele>4.4</ele>
        <time>2019-01-16T22:11:32Z</time>
      </trkpt>
      <trkpt lat="51.234341142699" lon="4.4722254574299">
        <ele>4.4</ele>
        <time>2019-01-16T22:11:33Z</time>
      </trkpt>
      <trkpt lat="51.234355643392" lon="4.4722618348897">
        <ele>4.4</ele>
        <time>2019-01-16T22:11:35Z</time>
      </trkpt>
      <trkpt lat="51.234372323379" lon="4.4722986314446">
        <ele>4.4</ele>
        <time>2019-01-16T22:11:36Z</time>
      </trkpt>
      <trkpt lat="51.234403168783" lon="4.4723586458713">
        <ele>4.6</ele>
        <time>2019-01-16T22:11:38Z</time>
      </trkpt>
      <trkpt lat="51.234507020563" lon="4.4726014696062">
        <ele>4.6</ele>
        <time>2019-01-16T22:11:45Z</time>
      </trkpt>
      <trkpt lat="51.23463191092" lon="4.4728539325297">
        <ele>4.8</ele>
        <time>2019-01-16T22:11:52Z</time>
      </trkpt>
      <trkpt lat="51.234710030258" lon="4.4731315411627">
        <ele>5</ele>
        <time>2019-01-16T22:11:59Z</time>
      </trkpt>
      <trkpt lat="51.234813462943" lon="4.4734094012529">
        <ele>5</ele>
        <time>2019-01-16T22:12:07Z</time>
      </trkpt>
      <trkpt lat="51.234926367179" lon="4.4736217148602">
        <ele>5.2</ele>
        <time>2019-01-16T22:12:14Z</time>
      </trkpt>
      <trkpt lat="51.235089562833" lon="4.4738269038498">
        <ele>5.4</ele>
        <time>2019-01-16T22:12:22Z</time>
      </trkpt>
      <trkpt lat="51.235163575038" lon="4.4741025008261">
        <ele>5.6</ele>
        <time>2019-01-16T22:12:29Z</time>
      </trkpt>
      <trkpt lat="51.235232055187" lon="4.474371811375">
        <ele>6.2</ele>
        <time>2019-01-16T22:12:36Z</time>
      </trkpt>
      <trkpt lat="51.235316796228" lon="4.4746443070471">
        <ele>6.2</ele>
        <time>2019-01-16T22:12:43Z</time>
      </trkpt>
      <trkpt lat="51.235415199772" lon="4.4748940877616">
        <ele>5.8</ele>
        <time>2019-01-16T22:12:50Z</time>
      </trkpt>
      <trkpt lat="51.235499018803" lon="4.4751582015306">
        <ele>5.4</ele>
        <time>2019-01-16T22:12:57Z</time>
      </trkpt>
      <trkpt lat="51.235529528931" lon="4.4753671623766">
        <ele>5.4</ele>
        <time>2019-01-16T22:13:02Z</time>
      </trkpt>
      <trkpt lat="51.235590968281" lon="4.4756570924073">
        <ele>5.2</ele>
        <time>2019-01-16T22:13:09Z</time>
      </trkpt>
      <trkpt lat="51.235639918596" lon="4.4759479444474">
        <ele>5</ele>
        <time>2019-01-16T22:13:16Z</time>
      </trkpt>
      <trkpt lat="51.235688533634" lon="4.476242987439">
        <ele>5</ele>
        <time>2019-01-16T22:13:23Z</time>
      </trkpt>
      <trkpt lat="51.235741423443" lon="4.476552195847">
        <ele>4.8</ele>
        <time>2019-01-16T22:13:31Z</time>
      </trkpt>
      <trkpt lat="51.235794816166" lon="4.4768610689789">
        <ele>4.8</ele>
        <time>2019-01-16T22:13:39Z</time>
      </trkpt>
      <trkpt lat="51.235852986574" lon="4.4771473109722">
        <ele>4.8</ele>
        <time>2019-01-16T22:13:46Z</time>
      </trkpt>
      <trkpt lat="51.235927082598" lon="4.4774253387004">
        <ele>4.6</ele>
        <time>2019-01-16T22:13:53Z</time>
      </trkpt>
      <trkpt lat="51.235988019034" lon="4.477699175477">
        <ele>4.6</ele>
        <time>2019-01-16T22:14:00Z</time>
      </trkpt>
      <trkpt lat="51.236038226634" lon="4.4779830705374">
        <ele>4.6</ele>
        <time>2019-01-16T22:14:07Z</time>
      </trkpt>
      <trkpt lat="51.236129924655" lon="4.478238299489">
        <ele>4.4</ele>
        <time>2019-01-16T22:14:14Z</time>
      </trkpt>
      <trkpt lat="51.236189603806" lon="4.4785145670176">
        <ele>4.4</ele>
        <time>2019-01-16T22:14:21Z</time>
      </trkpt>
      <trkpt lat="51.236208546907" lon="4.4788306485862">
        <ele>4.6</ele>
        <time>2019-01-16T22:14:28Z</time>
      </trkpt>
      <trkpt lat="51.236157668754" lon="4.4791398569942">
        <ele>4.8</ele>
        <time>2019-01-16T22:14:35Z</time>
      </trkpt>
      <trkpt lat="51.236141659319" lon="4.4794574473053">
        <ele>4.8</ele>
        <time>2019-01-16T22:14:42Z</time>
      </trkpt>
      <trkpt lat="51.23613813892" lon="4.4797255843878">
        <ele>4.4</ele>
        <time>2019-01-16T22:14:48Z</time>
      </trkpt>
      <trkpt lat="51.236112909392" lon="4.4800201244652">
        <ele>4.2</ele>
        <time>2019-01-16T22:14:55Z</time>
      </trkpt>
      <trkpt lat="51.23608969152" lon="4.4803159218282">
        <ele>3.8</ele>
        <time>2019-01-16T22:15:03Z</time>
      </trkpt>
      <trkpt lat="51.236076448113" lon="4.4806255493313">
        <ele>4</ele>
        <time>2019-01-16T22:15:11Z</time>
      </trkpt>
      <trkpt lat="51.236076531932" lon="4.4809214305133">
        <ele>4</ele>
        <time>2019-01-16T22:15:18Z</time>
      </trkpt>
      <trkpt lat="51.23607929796" lon="4.4811299722642">
        <ele>4</ele>
        <time>2019-01-16T22:15:23Z</time>
      </trkpt>
      <trkpt lat="51.236066557467" lon="4.4814236741513">
        <ele>4.2</ele>
        <time>2019-01-16T22:15:30Z</time>
      </trkpt>
      <trkpt lat="51.236036634073" lon="4.4817326311022">
        <ele>4.6</ele>
        <time>2019-01-16T22:15:38Z</time>
      </trkpt>
      <trkpt lat="51.236033700407" lon="4.4820374809206">
        <ele>4.6</ele>
        <time>2019-01-16T22:15:46Z</time>
      </trkpt>
      <trkpt lat="51.236049626023" lon="4.4823591783643">
        <ele>4.4</ele>
        <time>2019-01-16T22:15:54Z</time>
      </trkpt>
      <trkpt lat="51.236067228019" lon="4.4826823007315">
        <ele>4.4</ele>
        <time>2019-01-16T22:16:02Z</time>
      </trkpt>
      <trkpt lat="51.236069407314" lon="4.4829712249339">
        <ele>4.4</ele>
        <time>2019-01-16T22:16:09Z</time>
      </trkpt>
      <trkpt lat="51.236069574952" lon="4.4832866359502">
        <ele>4.4</ele>
        <time>2019-01-16T22:16:17Z</time>
      </trkpt>
      <trkpt lat="51.236067311838" lon="4.4836149550974">
        <ele>4</ele>
        <time>2019-01-16T22:16:25Z</time>
      </trkpt>
      <trkpt lat="51.236078208312" lon="4.4839060585946">
        <ele>4</ele>
        <time>2019-01-16T22:16:32Z</time>
      </trkpt>
      <trkpt lat="51.236087596044" lon="4.4841992575675">
        <ele>4</ele>
        <time>2019-01-16T22:16:39Z</time>
      </trkpt>
      <trkpt lat="51.236084410921" lon="4.484488600865">
        <ele>4</ele>
        <time>2019-01-16T22:16:46Z</time>
      </trkpt>
      <trkpt lat="51.236017439514" lon="4.4847790338099">
        <ele>4</ele>
        <time>2019-01-16T22:16:53Z</time>
      </trkpt>
      <trkpt lat="51.236022803932" lon="4.4850879907608">
        <ele>4.2</ele>
        <time>2019-01-16T22:17:01Z</time>
      </trkpt>
      <trkpt lat="51.236088937148" lon="4.4853652641177">
        <ele>4.4</ele>
        <time>2019-01-16T22:17:09Z</time>
      </trkpt>
      <trkpt lat="51.236100587994" lon="4.4856576249003">
        <ele>4.4</ele>
        <time>2019-01-16T22:17:16Z</time>
      </trkpt>
      <trkpt lat="51.236100252718" lon="4.4859753828496">
        <ele>4.4</ele>
        <time>2019-01-16T22:17:24Z</time>
      </trkpt>
      <trkpt lat="51.236107293516" lon="4.4862957391888">
        <ele>4.2</ele>
        <time>2019-01-16T22:17:32Z</time>
      </trkpt>
      <trkpt lat="51.236110227183" lon="4.4866230525076">
        <ele>3.8</ele>
        <time>2019-01-16T22:17:40Z</time>
      </trkpt>
      <trkpt lat="51.236098911613" lon="4.4869245495647">
        <ele>3.6</ele>
        <time>2019-01-16T22:17:48Z</time>
      </trkpt>
      <trkpt lat="51.236117267981" lon="4.4872354343534">
        <ele>3.6</ele>
        <time>2019-01-16T22:17:56Z</time>
      </trkpt>
      <trkpt lat="51.236122464761" lon="4.4875069241971">
        <ele>4</ele>
        <time>2019-01-16T22:18:03Z</time>
      </trkpt>
      <trkpt lat="51.236125398427" lon="4.4878116901964">
        <ele>4</ele>
        <time>2019-01-16T22:18:11Z</time>
      </trkpt>
      <trkpt lat="51.236143670976" lon="4.4881010334939">
        <ele>4.4</ele>
        <time>2019-01-16T22:18:18Z</time>
      </trkpt>
      <trkpt lat="51.236147526652" lon="4.4883928075433">
        <ele>4.6</ele>
        <time>2019-01-16T22:18:25Z</time>
      </trkpt>
      <trkpt lat="51.236128415912" lon="4.4886155147105">
        <ele>4.6</ele>
        <time>2019-01-16T22:18:31Z</time>
      </trkpt>
      <trkpt lat="51.235977876931" lon="4.488796396181">
        <ele>4.4</ele>
        <time>2019-01-16T22:18:39Z</time>
      </trkpt>
      <trkpt lat="51.235964214429" lon="4.4890941213816">
        <ele>4.4</ele>
        <time>2019-01-16T22:18:46Z</time>
      </trkpt>
      <trkpt lat="51.23591484502" lon="4.4893273897469">
        <ele>4.4</ele>
        <time>2019-01-16T22:18:52Z</time>
      </trkpt>
      <trkpt lat="51.235866732895" lon="4.4893397949636">
        <ele>4.2</ele>
        <time>2019-01-16T22:18:54Z</time>
      </trkpt>
      <trkpt lat="51.235705465078" lon="4.4891508668661">
        <ele>4</ele>
        <time>2019-01-16T22:19:01Z</time>
      </trkpt>
      <trkpt lat="51.235560374334" lon="4.4889666326344">
        <ele>3.8</ele>
        <time>2019-01-16T22:19:08Z</time>
      </trkpt>
      <trkpt lat="51.235418301076" lon="4.4887632876635">
        <ele>3.6</ele>
        <time>2019-01-16T22:19:15Z</time>
      </trkpt>
      <trkpt lat="51.235278323293" lon="4.4885291811079">
        <ele>3.4</ele>
        <time>2019-01-16T22:19:23Z</time>
      </trkpt>
      <trkpt lat="51.235147314146" lon="4.4883175380528">
        <ele>3.6</ele>
        <time>2019-01-16T22:19:30Z</time>
      </trkpt>
      <trkpt lat="51.235023429617" lon="4.4880925677717">
        <ele>4</ele>
        <time>2019-01-16T22:19:37Z</time>
      </trkpt>
      <trkpt lat="51.234891079366" lon="4.4878703635186">
        <ele>4</ele>
        <time>2019-01-16T22:19:44Z</time>
      </trkpt>
      <trkpt lat="51.234777504578" lon="4.4876987859607">
        <ele>4.2</ele>
        <time>2019-01-16T22:19:50Z</time>
      </trkpt>
      <trkpt lat="51.234653871506" lon="4.4874562136829">
        <ele>4.6</ele>
        <time>2019-01-16T22:19:58Z</time>
      </trkpt>
      <trkpt lat="51.234556809068" lon="4.4872910901904">
        <ele>4.8</ele>
        <time>2019-01-16T22:20:04Z</time>
      </trkpt>
      <trkpt lat="51.234458154067" lon="4.4870419800282">
        <ele>5</ele>
        <time>2019-01-16T22:20:12Z</time>
      </trkpt>
      <trkpt lat="51.234374921769" lon="4.4867813028395">
        <ele>5.6</ele>
        <time>2019-01-16T22:20:20Z</time>
      </trkpt>
      <trkpt lat="51.2342372071" lon="4.4865653850138">
        <ele>5.8</ele>
        <time>2019-01-16T22:20:28Z</time>
      </trkpt>
      <trkpt lat="51.234115418047" lon="4.4863420072943">
        <ele>6</ele>
        <time>2019-01-16T22:20:35Z</time>
      </trkpt>
      <trkpt lat="51.233980469406" lon="4.4861022848636">
        <ele>6.2</ele>
        <time>2019-01-16T22:20:44Z</time>
      </trkpt>
      <trkpt lat="51.233872845769" lon="4.485852168873">
        <ele>6.2</ele>
        <time>2019-01-16T22:20:51Z</time>
      </trkpt>
      <trkpt lat="51.233732867986" lon="4.4856375083327">
        <ele>6</ele>
        <time>2019-01-16T22:20:58Z</time>
      </trkpt>
      <trkpt lat="51.233603032306" lon="4.4854120351374">
        <ele>6</ele>
        <time>2019-01-16T22:21:05Z</time>
      </trkpt>
      <trkpt lat="51.233483925462" lon="4.4851846341044">
        <ele>6.2</ele>
        <time>2019-01-16T22:21:12Z</time>
      </trkpt>
      <trkpt lat="51.233440423384" lon="4.4850894995034">
        <ele>6.4</ele>
        <time>2019-01-16T22:21:15Z</time>
      </trkpt>
      <trkpt lat="51.233322909102" lon="4.4848709832877">
        <ele>6.6</ele>
        <time>2019-01-16T22:21:22Z</time>
      </trkpt>
      <trkpt lat="51.233205311" lon="4.4846456777304">
        <ele>6.8</ele>
        <time>2019-01-16T22:21:29Z</time>
      </trkpt>
      <trkpt lat="51.233069859445" lon="4.4844083860517">
        <ele>7</ele>
        <time>2019-01-16T22:21:37Z</time>
      </trkpt>
      <trkpt lat="51.232938850299" lon="4.4841664843261">
        <ele>7</ele>
        <time>2019-01-16T22:21:45Z</time>
      </trkpt>
      <trkpt lat="51.232806080952" lon="4.4839182961732">
        <ele>6.8</ele>
        <time>2019-01-16T22:21:53Z</time>
      </trkpt>
      <trkpt lat="51.232684627175" lon="4.4836968462914">
        <ele>6.8</ele>
        <time>2019-01-16T22:22:01Z</time>
      </trkpt>
      <trkpt lat="51.232589492574" lon="4.4835738837719">
        <ele>6.6</ele>
        <time>2019-01-16T22:22:07Z</time>
      </trkpt>
      <trkpt lat="51.232407269999" lon="4.4835168030113">
        <ele>6</ele>
        <time>2019-01-16T22:22:15Z</time>
      </trkpt>
      <trkpt lat="51.232280032709" lon="4.4834437128156">
        <ele>5.6</ele>
        <time>2019-01-16T22:22:21Z</time>
      </trkpt>
      <trkpt lat="51.232085991651" lon="4.4834127835929">
        <ele>5.4</ele>
        <time>2019-01-16T22:22:30Z</time>
      </trkpt>
      <trkpt lat="51.231896560639" lon="4.4834165554494">
        <ele>5.2</ele>
        <time>2019-01-16T22:22:37Z</time>
      </trkpt>
      <trkpt lat="51.231709644198" lon="4.4834084250033">
        <ele>5</ele>
        <time>2019-01-16T22:22:44Z</time>
      </trkpt>
      <trkpt lat="51.231526583433" lon="4.4834094308317">
        <ele>4.6</ele>
        <time>2019-01-16T22:22:51Z</time>
      </trkpt>
      <trkpt lat="51.231340924278" lon="4.4834242668003">
        <ele>4.6</ele>
        <time>2019-01-16T22:22:59Z</time>
      </trkpt>
      <trkpt lat="51.231155432761" lon="4.4833900686353">
        <ele>4.6</ele>
        <time>2019-01-16T22:23:07Z</time>
      </trkpt>
      <trkpt lat="51.230960385874" lon="4.4833757355809">
        <ele>4.4</ele>
        <time>2019-01-16T22:23:15Z</time>
      </trkpt>
      <trkpt lat="51.23076508753" lon="4.4832979515195">
        <ele>4.4</ele>
        <time>2019-01-16T22:23:23Z</time>
      </trkpt>
      <trkpt lat="51.230583367869" lon="4.4832442235202">
        <ele>4.4</ele>
        <time>2019-01-16T22:23:30Z</time>
      </trkpt>
      <trkpt lat="51.230403659865" lon="4.4831992127001">
        <ele>4.4</ele>
        <time>2019-01-16T22:23:37Z</time>
      </trkpt>
      <trkpt lat="51.230214731768" lon="4.4831476639956">
        <ele>4.4</ele>
        <time>2019-01-16T22:23:45Z</time>
      </trkpt>
      <trkpt lat="51.230024211109" lon="4.4831318221986">
        <ele>4.4</ele>
        <time>2019-01-16T22:23:52Z</time>
      </trkpt>
      <trkpt lat="51.229848777875" lon="4.4830564688891">
        <ele>4.6</ele>
        <time>2019-01-16T22:23:59Z</time>
      </trkpt>
      <trkpt lat="51.22966135852" lon="4.4829990528524">
        <ele>5.2</ele>
        <time>2019-01-16T22:24:06Z</time>
      </trkpt>
      <trkpt lat="51.229481985793" lon="4.482942642644">
        <ele>5.6</ele>
        <time>2019-01-16T22:24:13Z</time>
      </trkpt>
      <trkpt lat="51.229293560609" lon="4.4828742463142">
        <ele>6.2</ele>
        <time>2019-01-16T22:24:21Z</time>
      </trkpt>
      <trkpt lat="51.22910823673" lon="4.4828507769853">
        <ele>6.6</ele>
        <time>2019-01-16T22:24:28Z</time>
      </trkpt>
      <trkpt lat="51.228929115459" lon="4.4828169979155">
        <ele>7</ele>
        <time>2019-01-16T22:24:35Z</time>
      </trkpt>
      <trkpt lat="51.228735577315" lon="4.4827748369426">
        <ele>6.4</ele>
        <time>2019-01-16T22:24:43Z</time>
      </trkpt>
      <trkpt lat="51.228555031121" lon="4.4827543012798">
        <ele>6</ele>
        <time>2019-01-16T22:24:50Z</time>
      </trkpt>
      <trkpt lat="51.228367527947" lon="4.4827493559569">
        <ele>5.4</ele>
        <time>2019-01-16T22:24:57Z</time>
      </trkpt>
      <trkpt lat="51.228185221553" lon="4.4827799499035">
        <ele>5</ele>
        <time>2019-01-16T22:25:04Z</time>
      </trkpt>
      <trkpt lat="51.227999813855" lon="4.4827916007489">
        <ele>5.2</ele>
        <time>2019-01-16T22:25:11Z</time>
      </trkpt>
      <trkpt lat="51.227820105851" lon="4.4827824644744">
        <ele>5.4</ele>
        <time>2019-01-16T22:25:18Z</time>
      </trkpt>
      <trkpt lat="51.227622376755" lon="4.4827407225966">
        <ele>5.6</ele>
        <time>2019-01-16T22:25:26Z</time>
      </trkpt>
      <trkpt lat="51.227441243827" lon="4.4826678000391">
        <ele>5.8</ele>
        <time>2019-01-16T22:25:34Z</time>
      </trkpt>
      <trkpt lat="51.227267486975" lon="4.4825115613639">
        <ele>6</ele>
        <time>2019-01-16T22:25:42Z</time>
      </trkpt>
      <trkpt lat="51.227097921073" lon="4.4823700748384">
        <ele>5.8</ele>
        <time>2019-01-16T22:25:50Z</time>
      </trkpt>
      <trkpt lat="51.226973282173" lon="4.4822582602501">
        <ele>5.6</ele>
        <time>2019-01-16T22:25:56Z</time>
      </trkpt>
      <trkpt lat="51.226785359904" lon="4.482125909999">
        <ele>5.4</ele>
        <time>2019-01-16T22:26:04Z</time>
      </trkpt>
      <trkpt lat="51.226632976905" lon="4.4819314498454">
        <ele>5.2</ele>
        <time>2019-01-16T22:26:12Z</time>
      </trkpt>
      <trkpt lat="51.22657363303" lon="4.4818504806608">
        <ele>5.2</ele>
        <time>2019-01-16T22:26:15Z</time>
      </trkpt>
      <trkpt lat="51.226425440982" lon="4.4816858600825">
        <ele>5</ele>
        <time>2019-01-16T22:26:22Z</time>
      </trkpt>
      <trkpt lat="51.226268112659" lon="4.4814874604344">
        <ele>5</ele>
        <time>2019-01-16T22:26:30Z</time>
      </trkpt>
      <trkpt lat="51.226093098521" lon="4.4813349097967">
        <ele>5</ele>
        <time>2019-01-16T22:26:38Z</time>
      </trkpt>
      <trkpt lat="51.225889669731" lon="4.4812626577914">
        <ele>5</ele>
        <time>2019-01-16T22:26:46Z</time>
      </trkpt>
      <trkpt lat="51.225731503218" lon="4.4811159744859">
        <ele>5</ele>
        <time>2019-01-16T22:26:53Z</time>
      </trkpt>
      <trkpt lat="51.225601583719" lon="4.4809834565967">
        <ele>5</ele>
        <time>2019-01-16T22:26:59Z</time>
      </trkpt>
      <trkpt lat="51.225433023646" lon="4.4808302354068">
        <ele>5.4</ele>
        <time>2019-01-16T22:27:07Z</time>
      </trkpt>
      <trkpt lat="51.225300924852" lon="4.4807356037199">
        <ele>5.8</ele>
        <time>2019-01-16T22:27:13Z</time>
      </trkpt>
      <trkpt lat="51.225100681186" lon="4.4807139784098">
        <ele>6.2</ele>
        <time>2019-01-16T22:27:21Z</time>
      </trkpt>
      <trkpt lat="51.22499817051" lon="4.4807158224285">
        <ele>6.4</ele>
        <time>2019-01-16T22:27:26Z</time>
      </trkpt>
      <trkpt lat="51.224806476384" lon="4.480770053342">
        <ele>7</ele>
        <time>2019-01-16T22:27:36Z</time>
      </trkpt>
      <trkpt lat="51.224608831108" lon="4.4807536248118">
        <ele>6.6</ele>
        <time>2019-01-16T22:27:44Z</time>
      </trkpt>
      <trkpt lat="51.224410934374" lon="4.4808427244425">
        <ele>6.2</ele>
        <time>2019-01-16T22:27:52Z</time>
      </trkpt>
      <trkpt lat="51.224221251905" lon="4.4809301476926">
        <ele>6</ele>
        <time>2019-01-16T22:28:00Z</time>
      </trkpt>
      <trkpt lat="51.224005585536" lon="4.4809283036739">
        <ele>5.8</ele>
        <time>2019-01-16T22:28:08Z</time>
      </trkpt>
      <trkpt lat="51.223811209202" lon="4.4808867294341">
        <ele>5.6</ele>
        <time>2019-01-16T22:28:16Z</time>
      </trkpt>
      <trkpt lat="51.223629740998" lon="4.4809301476926">
        <ele>5.6</ele>
        <time>2019-01-16T22:28:24Z</time>
      </trkpt>
      <trkpt lat="51.223456654698" lon="4.4810510985553">
        <ele>5.4</ele>
        <time>2019-01-16T22:28:31Z</time>
      </trkpt>
      <trkpt lat="51.223276946694" lon="4.4811415392905">
        <ele>5.2</ele>
        <time>2019-01-16T22:28:38Z</time>
      </trkpt>
      <trkpt lat="51.223081480712" lon="4.4811986200511">
        <ele>5</ele>
        <time>2019-01-16T22:28:46Z</time>
      </trkpt>
      <trkpt lat="51.222884422168" lon="4.4812235981226">
        <ele>5</ele>
        <time>2019-01-16T22:28:54Z</time>
      </trkpt>
      <trkpt lat="51.222692308947" lon="4.4812770746648">
        <ele>5</ele>
        <time>2019-01-16T22:29:01Z</time>
      </trkpt>
      <trkpt lat="51.222505560145" lon="4.4812487438321">
        <ele>5</ele>
        <time>2019-01-16T22:29:08Z</time>
      </trkpt>
      <trkpt lat="51.222324008122" lon="4.4812143780291">
        <ele>5</ele>
        <time>2019-01-16T22:29:16Z</time>
      </trkpt>
      <trkpt lat="51.222255192697" lon="4.4811702892184">
        <ele>5</ele>
        <time>2019-01-16T22:29:19Z</time>
      </trkpt>
      <trkpt lat="51.222212361172" lon="4.4811352528632">
        <ele>5</ele>
        <time>2019-01-16T22:29:21Z</time>
      </trkpt>
      <trkpt lat="51.222052183002" lon="4.4809516891837">
        <ele>4.8</ele>
        <time>2019-01-16T22:29:29Z</time>
      </trkpt>
      <trkpt lat="51.221895944327" lon="4.4807537924498">
        <ele>4.6</ele>
        <time>2019-01-16T22:29:37Z</time>
      </trkpt>
      <trkpt lat="51.221739454195" lon="4.4805677980185">
        <ele>4.4</ele>
        <time>2019-01-16T22:29:44Z</time>
      </trkpt>
      <trkpt lat="51.221617748961" lon="4.480357747525">
        <ele>4.4</ele>
        <time>2019-01-16T22:29:51Z</time>
      </trkpt>
      <trkpt lat="51.22152177617" lon="4.4800789654255">
        <ele>4.4</ele>
        <time>2019-01-16T22:29:59Z</time>
      </trkpt>
      <trkpt lat="51.221339385957" lon="4.4801083020866">
        <ele>4.2</ele>
        <time>2019-01-16T22:30:09Z</time>
      </trkpt>
      <trkpt lat="51.221164120361" lon="4.480222966522">
        <ele>4.6</ele>
        <time>2019-01-16T22:30:17Z</time>
      </trkpt>
      <trkpt lat="51.220981143415" lon="4.480312988162">
        <ele>5.2</ele>
        <time>2019-01-16T22:30:25Z</time>
      </trkpt>
      <trkpt lat="51.220792131498" lon="4.4804078713059">
        <ele>5.6</ele>
        <time>2019-01-16T22:30:33Z</time>
      </trkpt>
      <trkpt lat="51.220690794289" lon="4.4803136587143">
        <ele>5.8</ele>
        <time>2019-01-16T22:30:38Z</time>
      </trkpt>
      <trkpt lat="51.220587529242" lon="4.480098830536">
        <ele>5.8</ele>
        <time>2019-01-16T22:30:45Z</time>
      </trkpt>
      <trkpt lat="51.220498429611" lon="4.4801271613687">
        <ele>6</ele>
        <time>2019-01-16T22:30:49Z</time>
      </trkpt>
      <trkpt lat="51.220321236178" lon="4.480228247121">
        <ele>6.6</ele>
        <time>2019-01-16T22:30:57Z</time>
      </trkpt>
      <trkpt lat="51.220148317516" lon="4.4803361222148">
        <ele>7.2</ele>
        <time>2019-01-16T22:31:05Z</time>
      </trkpt>
      <trkpt lat="51.220001382753" lon="4.4804393872619">
        <ele>7.4</ele>
        <time>2019-01-16T22:31:11Z</time>
      </trkpt>
      <trkpt lat="51.219808431342" lon="4.4805496092886">
        <ele>8</ele>
        <time>2019-01-16T22:31:19Z</time>
      </trkpt>
      <trkpt lat="51.219620006159" lon="4.4804968032986">
        <ele>8.2</ele>
        <time>2019-01-16T22:31:27Z</time>
      </trkpt>
      <trkpt lat="51.219518249854" lon="4.4802320189774">
        <ele>8.2</ele>
        <time>2019-01-16T22:31:34Z</time>
      </trkpt>
      <trkpt lat="51.219466449693" lon="4.479924319312">
        <ele>7.8</ele>
        <time>2019-01-16T22:31:41Z</time>
      </trkpt>
      <trkpt lat="51.219432670623" lon="4.4796863570809">
        <ele>7.6</ele>
        <time>2019-01-16T22:31:47Z</time>
      </trkpt>
      <trkpt lat="51.219360921532" lon="4.4793910626322">
        <ele>7.6</ele>
        <time>2019-01-16T22:31:55Z</time>
      </trkpt>
      <trkpt lat="51.219277186319" lon="4.4790951814502">
        <ele>7.6</ele>
        <time>2019-01-16T22:32:03Z</time>
      </trkpt>
      <trkpt lat="51.21925204061" lon="4.47898093611">
        <ele>7.6</ele>
        <time>2019-01-16T22:32:06Z</time>
      </trkpt>
      <trkpt lat="51.219188338146" lon="4.4786729849875">
        <ele>7.8</ele>
        <time>2019-01-16T22:32:14Z</time>
      </trkpt>
      <trkpt lat="51.219177106395" lon="4.4786358531564">
        <ele>7.6</ele>
        <time>2019-01-16T22:32:15Z</time>
      </trkpt>
      <trkpt lat="51.219164868817" lon="4.4785972964019">
        <ele>7.6</ele>
        <time>2019-01-16T22:32:16Z</time>
      </trkpt>
      <trkpt lat="51.219154056162" lon="4.4785547163337">
        <ele>7.6</ele>
        <time>2019-01-16T22:32:17Z</time>
      </trkpt>
      <trkpt lat="51.219108626246" lon="4.4782654568553">
        <ele>7.4</ele>
        <time>2019-01-16T22:32:25Z</time>
      </trkpt>
      <trkpt lat="51.219043582678" lon="4.4779995828867">
        <ele>7</ele>
        <time>2019-01-16T22:32:32Z</time>
      </trkpt>
      <trkpt lat="51.21899404563" lon="4.4777082279325">
        <ele>6.8</ele>
        <time>2019-01-16T22:32:39Z</time>
      </trkpt>
      <trkpt lat="51.21897066012" lon="4.4774971716106">
        <ele>6.6</ele>
        <time>2019-01-16T22:32:44Z</time>
      </trkpt>
      <trkpt lat="51.218927074224" lon="4.4772058166564">
        <ele>6.2</ele>
        <time>2019-01-16T22:32:51Z</time>
      </trkpt>
      <trkpt lat="51.218904694542" lon="4.4769097678363">
        <ele>5.8</ele>
        <time>2019-01-16T22:32:58Z</time>
      </trkpt>
      <trkpt lat="51.218911902979" lon="4.4766216818243">
        <ele>5.6</ele>
        <time>2019-01-16T22:33:05Z</time>
      </trkpt>
      <trkpt lat="51.218947945163" lon="4.4763280637562">
        <ele>5.2</ele>
        <time>2019-01-16T22:33:12Z</time>
      </trkpt>
      <trkpt lat="51.218953058124" lon="4.4762874115258">
        <ele>5.2</ele>
        <time>2019-01-16T22:33:13Z</time>
      </trkpt>
      <trkpt lat="51.218975270167" lon="4.4759727548808">
        <ele>5</ele>
        <time>2019-01-16T22:33:20Z</time>
      </trkpt>
      <trkpt lat="51.218999745324" lon="4.475664049387">
        <ele>5.2</ele>
        <time>2019-01-16T22:33:27Z</time>
      </trkpt>
      <trkpt lat="51.21903469786" lon="4.4753737002611">
        <ele>5.2</ele>
        <time>2019-01-16T22:33:34Z</time>
      </trkpt>
      <trkpt lat="51.219079373404" lon="4.4750656653196">
        <ele>5</ele>
        <time>2019-01-16T22:33:42Z</time>
      </trkpt>
      <trkpt lat="51.219136286527" lon="4.4747673533857">
        <ele>4.8</ele>
        <time>2019-01-16T22:33:50Z</time>
      </trkpt>
      <trkpt lat="51.219142572954" lon="4.4747291319072">
        <ele>4.8</ele>
        <time>2019-01-16T22:33:51Z</time>
      </trkpt>
      <trkpt lat="51.219173334539" lon="4.4745289720595">
        <ele>4.6</ele>
        <time>2019-01-16T22:33:56Z</time>
      </trkpt>
      <trkpt lat="51.219185823575" lon="4.4744091946632">
        <ele>4.6</ele>
        <time>2019-01-16T22:33:59Z</time>
      </trkpt>
      <trkpt lat="51.219219435006" lon="4.4741269759834">
        <ele>4.6</ele>
        <time>2019-01-16T22:34:06Z</time>
      </trkpt>
      <trkpt lat="51.21926587075" lon="4.4738205336034">
        <ele>4.6</ele>
        <time>2019-01-16T22:34:14Z</time>
      </trkpt>
      <trkpt lat="51.219280539081" lon="4.4736191164702">
        <ele>4.6</ele>
        <time>2019-01-16T22:34:19Z</time>
      </trkpt>
      <trkpt lat="51.219285652041" lon="4.4735410809517">
        <ele>4.8</ele>
        <time>2019-01-16T22:34:21Z</time>
      </trkpt>
      <trkpt lat="51.219331165776" lon="4.4732243288308">
        <ele>6</ele>
        <time>2019-01-16T22:34:29Z</time>
      </trkpt>
      <trkpt lat="51.219381792471" lon="4.4729116000235">
        <ele>6.4</ele>
        <time>2019-01-16T22:34:37Z</time>
      </trkpt>
      <trkpt lat="51.219420768321" lon="4.4726780802011">
        <ele>7</ele>
        <time>2019-01-16T22:34:43Z</time>
      </trkpt>
      <trkpt lat="51.2194779329" lon="4.4723719730973">
        <ele>7.6</ele>
        <time>2019-01-16T22:34:51Z</time>
      </trkpt>
      <trkpt lat="51.219531744719" lon="4.4720637705177">
        <ele>7.8</ele>
        <time>2019-01-16T22:34:59Z</time>
      </trkpt>
      <trkpt lat="51.219577593729" lon="4.4717788696289">
        <ele>9</ele>
        <time>2019-01-16T22:35:06Z</time>
      </trkpt>
      <trkpt lat="51.21963375248" lon="4.4714660570025">
        <ele>9.4</ele>
        <time>2019-01-16T22:35:14Z</time>
      </trkpt>
      <trkpt lat="51.219683373347" lon="4.4711573515087">
        <ele>9.8</ele>
        <time>2019-01-16T22:35:22Z</time>
      </trkpt>
      <trkpt lat="51.219745734707" lon="4.4708614703268">
        <ele>10.2</ele>
        <time>2019-01-16T22:35:30Z</time>
      </trkpt>
      <trkpt lat="51.219779094681" lon="4.4705590512604">
        <ele>10.6</ele>
        <time>2019-01-16T22:35:37Z</time>
      </trkpt>
      <trkpt lat="51.219823015854" lon="4.4703584723175">
        <ele>10.8</ele>
        <time>2019-01-16T22:35:42Z</time>
      </trkpt>
      <trkpt lat="51.219875402749" lon="4.4700811989605">
        <ele>10.8</ele>
        <time>2019-01-16T22:35:49Z</time>
      </trkpt>
      <trkpt lat="51.219926699996" lon="4.4697948731482">
        <ele>11</ele>
        <time>2019-01-16T22:35:56Z</time>
      </trkpt>
      <trkpt lat="51.219986211509" lon="4.469500919804">
        <ele>10.8</ele>
        <time>2019-01-16T22:36:04Z</time>
      </trkpt>
      <trkpt lat="51.220041615888" lon="4.4692046195269">
        <ele>10.4</ele>
        <time>2019-01-16T22:36:12Z</time>
      </trkpt>
      <trkpt lat="51.220142198727" lon="4.4689610414207">
        <ele>9.8</ele>
        <time>2019-01-16T22:36:20Z</time>
      </trkpt>
      <trkpt lat="51.220156699419" lon="4.4689350575209">
        <ele>9.8</ele>
        <time>2019-01-16T22:36:21Z</time>
      </trkpt>
      <trkpt lat="51.220176396891" lon="4.4689214788377">
        <ele>9.6</ele>
        <time>2019-01-16T22:36:22Z</time>
      </trkpt>
      <trkpt lat="51.220262898132" lon="4.4688866101205">
        <ele>9.2</ele>
        <time>2019-01-16T22:36:26Z</time>
      </trkpt>
      <trkpt lat="51.220348309726" lon="4.4689033739269">
        <ele>8.6</ele>
        <time>2019-01-16T22:36:30Z</time>
      </trkpt>
      <trkpt lat="51.220539584756" lon="4.4689227361232">
        <ele>7.4</ele>
        <time>2019-01-16T22:36:37Z</time>
      </trkpt>
      <trkpt lat="51.220645951107" lon="4.4689348898828">
        <ele>7</ele>
        <time>2019-01-16T22:36:41Z</time>
      </trkpt>
      <trkpt lat="51.220766315237" lon="4.4689358118922">
        <ele>6.8</ele>
        <time>2019-01-16T22:36:45Z</time>
      </trkpt>
      <trkpt lat="51.220847954974" lon="4.4689308665693">
        <ele>6.8</ele>
        <time>2019-01-16T22:36:48Z</time>
      </trkpt>
      <trkpt lat="51.220908137038" lon="4.4689263403416">
        <ele>6.6</ele>
        <time>2019-01-16T22:36:51Z</time>
      </trkpt>
      <trkpt lat="51.221049623564" lon="4.4689153600484">
        <ele>6.6</ele>
        <time>2019-01-16T22:36:57Z</time>
      </trkpt>
      <trkpt lat="51.221073511988" lon="4.4688827544451">
        <ele>6.8</ele>
        <time>2019-01-16T22:36:58Z</time>
      </trkpt>
      <trkpt lat="51.22115640901" lon="4.4686145335436">
        <ele>7</ele>
        <time>2019-01-16T22:37:06Z</time>
      </trkpt>
      <trkpt lat="51.221226146445" lon="4.4683020561934">
        <ele>6.8</ele>
        <time>2019-01-16T22:37:14Z</time>
      </trkpt>
      <trkpt lat="51.221216004342" lon="4.4680069293827">
        <ele>6.8</ele>
        <time>2019-01-16T22:37:22Z</time>
      </trkpt>
      <trkpt lat="51.221206532791" lon="4.4678641017526">
        <ele>6.8</ele>
        <time>2019-01-16T22:37:26Z</time>
      </trkpt>
      <trkpt lat="51.221201000735" lon="4.4675606768578">
        <ele>6.4</ele>
        <time>2019-01-16T22:37:34Z</time>
      </trkpt>
      <trkpt lat="51.221186080948" lon="4.4672735128552">
        <ele>6.4</ele>
        <time>2019-01-16T22:37:41Z</time>
      </trkpt>
      <trkpt lat="51.22120141983" lon="4.4669857621193">
        <ele>6.4</ele>
        <time>2019-01-16T22:37:48Z</time>
      </trkpt>
      <trkpt lat="51.22120661661" lon="4.4666740391403">
        <ele>7</ele>
        <time>2019-01-16T22:37:56Z</time>
      </trkpt>
      <trkpt lat="51.221216255799" lon="4.4663671776652">
        <ele>7.4</ele>
        <time>2019-01-16T22:38:03Z</time>
      </trkpt>
      <trkpt lat="51.221206784248" lon="4.4662176445127">
        <ele>7.6</ele>
        <time>2019-01-16T22:38:07Z</time>
      </trkpt>
      <trkpt lat="51.221215836704" lon="4.4659204222262">
        <ele>8</ele>
        <time>2019-01-16T22:38:15Z</time>
      </trkpt>
      <trkpt lat="51.221249112859" lon="4.4656256306916">
        <ele>8.4</ele>
        <time>2019-01-16T22:38:22Z</time>
      </trkpt>
      <trkpt lat="51.221266631037" lon="4.4653154164553">
        <ele>8.8</ele>
        <time>2019-01-16T22:38:29Z</time>
      </trkpt>
      <trkpt lat="51.22127241455" lon="4.4650641269982">
        <ele>8.4</ele>
        <time>2019-01-16T22:38:35Z</time>
      </trkpt>
      <trkpt lat="51.221277946606" lon="4.4647488836199">
        <ele>8</ele>
        <time>2019-01-16T22:38:44Z</time>
      </trkpt>
      <trkpt lat="51.221297895536" lon="4.4644456263632">
        <ele>7.8</ele>
        <time>2019-01-16T22:38:52Z</time>
      </trkpt>
      <trkpt lat="51.221312480047" lon="4.4641375076026">
        <ele>7.6</ele>
        <time>2019-01-16T22:38:59Z</time>
      </trkpt>
      <trkpt lat="51.221366627142" lon="4.4638139661402">
        <ele>7.2</ele>
        <time>2019-01-16T22:39:07Z</time>
      </trkpt>
      <trkpt lat="51.221370063722" lon="4.4637672789395">
        <ele>7.2</ele>
        <time>2019-01-16T22:39:08Z</time>
      </trkpt>
      <trkpt lat="51.221394538879" lon="4.4634721521288">
        <ele>7</ele>
        <time>2019-01-16T22:39:15Z</time>
      </trkpt>
      <trkpt lat="51.221407866105" lon="4.4631496164948">
        <ele>7</ele>
        <time>2019-01-16T22:39:23Z</time>
      </trkpt>
      <trkpt lat="51.221426390111" lon="4.462851639837">
        <ele>7</ele>
        <time>2019-01-16T22:39:30Z</time>
      </trkpt>
      <trkpt lat="51.221462767571" lon="4.4625641405582">
        <ele>7</ele>
        <time>2019-01-16T22:39:37Z</time>
      </trkpt>
      <trkpt lat="51.221466204152" lon="4.4622850231826">
        <ele>7</ele>
        <time>2019-01-16T22:39:44Z</time>
      </trkpt>
      <trkpt lat="51.221432676539" lon="4.4619960151613">
        <ele>7</ele>
        <time>2019-01-16T22:39:51Z</time>
      </trkpt>
      <trkpt lat="51.221448015422" lon="4.4616924226284">
        <ele>6.6</ele>
        <time>2019-01-16T22:39:59Z</time>
      </trkpt>
      <trkpt lat="51.221611630172" lon="4.4615081045777">
        <ele>6</ele>
        <time>2019-01-16T22:40:07Z</time>
      </trkpt>
      <trkpt lat="51.221778681502" lon="4.4613781012595">
        <ele>5.6</ele>
        <time>2019-01-16T22:40:13Z</time>
      </trkpt>
      <trkpt lat="51.221900805831" lon="4.4612741656601">
        <ele>5.4</ele>
        <time>2019-01-16T22:40:19Z</time>
      </trkpt>
      <trkpt lat="51.222057631239" lon="4.4611191842705">
        <ele>5.2</ele>
        <time>2019-01-16T22:40:27Z</time>
      </trkpt>
      <trkpt lat="51.222025193274" lon="4.4608390610665">
        <ele>5</ele>
        <time>2019-01-16T22:40:34Z</time>
      </trkpt>
      <trkpt lat="51.222027707845" lon="4.4608000013977">
        <ele>5</ele>
        <time>2019-01-16T22:40:35Z</time>
      </trkpt>
      <trkpt lat="51.222149580717" lon="4.4606762006879">
        <ele>5</ele>
        <time>2019-01-16T22:40:43Z</time>
      </trkpt>
      <trkpt lat="51.222200207412" lon="4.4607185292989">
        <ele>5</ele>
        <time>2019-01-16T22:40:48Z</time>
      </trkpt>
      <trkpt lat="51.222306741402" lon="4.4609126541764">
        <ele>5</ele>
        <time>2019-01-16T22:40:55Z</time>
      </trkpt>
      <trkpt lat="51.222323253751" lon="4.460885161534">
        <ele>5</ele>
        <time>2019-01-16T22:40:57Z</time>
      </trkpt>
      <trkpt lat="51.222269441932" lon="4.4606124144047">
        <ele>5</ele>
        <time>2019-01-16T22:41:05Z</time>
      </trkpt>
      <trkpt lat="51.222263993695" lon="4.4605598598719">
        <ele>5</ele>
        <time>2019-01-16T22:41:07Z</time>
      </trkpt>
      <trkpt lat="51.222239267081" lon="4.4602702651173">
        <ele>5</ele>
        <time>2019-01-16T22:41:16Z</time>
      </trkpt>
      <trkpt lat="51.222191574052" lon="4.4599737972021">
        <ele>4.6</ele>
        <time>2019-01-16T22:41:23Z</time>
      </trkpt>
      <trkpt lat="51.222148658708" lon="4.4597114436328">
        <ele>4.2</ele>
        <time>2019-01-16T22:41:30Z</time>
      </trkpt>
      <trkpt lat="51.222096355632" lon="4.4595314003527">
        <ele>4</ele>
        <time>2019-01-16T22:41:37Z</time>
      </trkpt>
      <trkpt lat="51.222267849371" lon="4.4594381097704">
        <ele>4</ele>
        <time>2019-01-16T22:41:44Z</time>
      </trkpt>
      <trkpt lat="51.222461387515" lon="4.4593748264015">
        <ele>4.4</ele>
        <time>2019-01-16T22:41:51Z</time>
      </trkpt>
      <trkpt lat="51.222501453012" lon="4.4593478366733">
        <ele>4.6</ele>
        <time>2019-01-16T22:41:52Z</time>
      </trkpt>
      <trkpt lat="51.222646627575" lon="4.4591269735247">
        <ele>4.8</ele>
        <time>2019-01-16T22:42:00Z</time>
      </trkpt>
      <trkpt lat="51.222773864865" lon="4.4589117262512">
        <ele>5.2</ele>
        <time>2019-01-16T22:42:07Z</time>
      </trkpt>
      <trkpt lat="51.222882997245" lon="4.4586647953838">
        <ele>5.4</ele>
        <time>2019-01-16T22:42:15Z</time>
      </trkpt>
      <trkpt lat="51.223028423265" lon="4.4584678206593">
        <ele>5.4</ele>
        <time>2019-01-16T22:42:24Z</time>
      </trkpt>
      <trkpt lat="51.223184494302" lon="4.4583009369671">
        <ele>5</ele>
        <time>2019-01-16T22:42:32Z</time>
      </trkpt>
      <trkpt lat="51.223339475691" lon="4.4580968376249">
        <ele>4.4</ele>
        <time>2019-01-16T22:42:39Z</time>
      </trkpt>
      <trkpt lat="51.223502084613" lon="4.457919895649">
        <ele>4.4</ele>
        <time>2019-01-16T22:42:46Z</time>
      </trkpt>
      <trkpt lat="51.223653294146" lon="4.45771378465">
        <ele>4.4</ele>
        <time>2019-01-16T22:42:53Z</time>
      </trkpt>
      <trkpt lat="51.223808107898" lon="4.4575241860002">
        <ele>4.4</ele>
        <time>2019-01-16T22:43:00Z</time>
      </trkpt>
      <trkpt lat="51.223974740133" lon="4.4573669414967">
        <ele>5</ele>
        <time>2019-01-16T22:43:08Z</time>
      </trkpt>
      <trkpt lat="51.224108180031" lon="4.4572141394019">
        <ele>4.6</ele>
        <time>2019-01-16T22:43:14Z</time>
      </trkpt>
      <trkpt lat="51.224192669615" lon="4.4571138080209">
        <ele>4.4</ele>
        <time>2019-01-16T22:43:18Z</time>
      </trkpt>
      <trkpt lat="51.224239943549" lon="4.4570812862366">
        <ele>4.4</ele>
        <time>2019-01-16T22:43:20Z</time>
      </trkpt>
      <trkpt lat="51.224399702623" lon="4.4569363631308">
        <ele>3.8</ele>
        <time>2019-01-16T22:43:28Z</time>
      </trkpt>
      <trkpt lat="51.224561640993" lon="4.4568147417158">
        <ele>3.4</ele>
        <time>2019-01-16T22:43:35Z</time>
      </trkpt>
      <trkpt lat="51.224671024829" lon="4.4569050148129">
        <ele>3.2</ele>
        <time>2019-01-16T22:43:39Z</time>
      </trkpt>
      <trkpt lat="51.224803207442" lon="4.4570945296437">
        <ele>3</ele>
        <time>2019-01-16T22:43:44Z</time>
      </trkpt>
      <trkpt lat="51.224888032302" lon="4.4572192523628">
        <ele>3</ele>
        <time>2019-01-16T22:43:48Z</time>
      </trkpt>
      <trkpt lat="51.225007055327" lon="4.4573780894279">
        <ele>3</ele>
        <time>2019-01-16T22:43:53Z</time>
      </trkpt>
      <trkpt lat="51.225136807188" lon="4.4576235953718">
        <ele>3</ele>
        <time>2019-01-16T22:44:00Z</time>
      </trkpt>
      <trkpt lat="51.225163713098" lon="4.4576905667782">
        <ele>3</ele>
        <time>2019-01-16T22:44:02Z</time>
      </trkpt>
      <trkpt lat="51.225278796628" lon="4.4579680915922">
        <ele>3</ele>
        <time>2019-01-16T22:44:09Z</time>
      </trkpt>
      <trkpt lat="51.22536085546" lon="4.4580623880029">
        <ele>3</ele>
        <time>2019-01-16T22:44:13Z</time>
      </trkpt>
      <trkpt lat="51.225523548201" lon="4.4582073111087">
        <ele>3</ele>
        <time>2019-01-16T22:44:20Z</time>
      </trkpt>
      <trkpt lat="51.225707195699" lon="4.4583795592189">
        <ele>3.2</ele>
        <time>2019-01-16T22:44:27Z</time>
      </trkpt>
      <trkpt lat="51.225870558992" lon="4.4585192017257">
        <ele>3.2</ele>
        <time>2019-01-16T22:44:35Z</time>
      </trkpt>
      <trkpt lat="51.226046159863" lon="4.4584386516362">
        <ele>3.6</ele>
        <time>2019-01-16T22:44:44Z</time>
      </trkpt>
      <trkpt lat="51.226101396605" lon="4.4583943951875">
        <ele>3.6</ele>
        <time>2019-01-16T22:44:47Z</time>
      </trkpt>
      <trkpt lat="51.22620315291" lon="4.4583529885858">
        <ele>3.6</ele>
        <time>2019-01-16T22:44:51Z</time>
      </trkpt>
      <trkpt lat="51.226383028552" lon="4.4582726899534">
        <ele>3.6</ele>
        <time>2019-01-16T22:44:58Z</time>
      </trkpt>
      <trkpt lat="51.226456202567" lon="4.4582355581224">
        <ele>3.4</ele>
        <time>2019-01-16T22:45:01Z</time>
      </trkpt>
      <trkpt lat="51.226525772363" lon="4.4582089036703">
        <ele>3.6</ele>
        <time>2019-01-16T22:45:04Z</time>
      </trkpt>
      <trkpt lat="51.226568771526" lon="4.458184177056">
        <ele>3.6</ele>
        <time>2019-01-16T22:45:06Z</time>
      </trkpt>
      <trkpt lat="51.226737415418" lon="4.4580698478967">
        <ele>3.6</ele>
        <time>2019-01-16T22:45:13Z</time>
      </trkpt>
      <trkpt lat="51.226906143129" lon="4.4579016231">
        <ele>3.6</ele>
        <time>2019-01-16T22:45:20Z</time>
      </trkpt>
      <trkpt lat="51.227094652131" lon="4.457782683894">
        <ele>3.8</ele>
        <time>2019-01-16T22:45:28Z</time>
      </trkpt>
      <trkpt lat="51.227278970182" lon="4.4576727971435">
        <ele>4</ele>
        <time>2019-01-16T22:45:36Z</time>
      </trkpt>
      <trkpt lat="51.227478040382" lon="4.4575856253505">
        <ele>3.8</ele>
        <time>2019-01-16T22:45:44Z</time>
      </trkpt>
      <trkpt lat="51.227639811113" lon="4.4575297180563">
        <ele>3.6</ele>
        <time>2019-01-16T22:45:51Z</time>
      </trkpt>
      <trkpt lat="51.22782018967" lon="4.4574460666627">
        <ele>3.4</ele>
        <time>2019-01-16T22:46:00Z</time>
      </trkpt>
      <trkpt lat="51.227922532707" lon="4.457412622869">
        <ele>3.2</ele>
        <time>2019-01-16T22:46:04Z</time>
      </trkpt>
      <trkpt lat="51.228091930971" lon="4.4573052506894">
        <ele>3</ele>
        <time>2019-01-16T22:46:13Z</time>
      </trkpt>
      <trkpt lat="51.22815085575" lon="4.4573099445552">
        <ele>3</ele>
        <time>2019-01-16T22:46:16Z</time>
      </trkpt>
      <trkpt lat="51.228276081383" lon="4.4573236070573">
        <ele>2.8</ele>
        <time>2019-01-16T22:46:23Z</time>
      </trkpt>
      <trkpt lat="51.228425027803" lon="4.4573553744704">
        <ele>2.6</ele>
        <time>2019-01-16T22:46:30Z</time>
      </trkpt>
      <trkpt lat="51.228481773287" lon="4.4575616531074">
        <ele>2.6</ele>
        <time>2019-01-16T22:46:35Z</time>
      </trkpt>
      <trkpt lat="51.228520246223" lon="4.4578675925732">
        <ele>2.6</ele>
        <time>2019-01-16T22:46:42Z</time>
      </trkpt>
      <trkpt lat="51.228590821847" lon="4.4581488054246">
        <ele>2.8</ele>
        <time>2019-01-16T22:46:50Z</time>
      </trkpt>
      <trkpt lat="51.2287628185" lon="4.4582140166312">
        <ele>2.6</ele>
        <time>2019-01-16T22:47:00Z</time>
      </trkpt>
      <trkpt lat="51.22894462198" lon="4.4581477157772">
        <ele>2.4</ele>
        <time>2019-01-16T22:47:09Z</time>
      </trkpt>
      <trkpt lat="51.229080827907" lon="4.4581091590226">
        <ele>2.4</ele>
        <time>2019-01-16T22:47:16Z</time>
      </trkpt>
      <trkpt lat="51.229268079624" lon="4.458065489307">
        <ele>2.4</ele>
        <time>2019-01-16T22:47:25Z</time>
      </trkpt>
      <trkpt lat="51.229457678273" lon="4.4579767249525">
        <ele>3</ele>
        <time>2019-01-16T22:47:33Z</time>
      </trkpt>
      <trkpt lat="51.229650545865" lon="4.4579407665879">
        <ele>3.6</ele>
        <time>2019-01-16T22:47:41Z</time>
      </trkpt>
      <trkpt lat="51.229828326032" lon="4.4579809997231">
        <ele>3.8</ele>
        <time>2019-01-16T22:47:49Z</time>
      </trkpt>
      <trkpt lat="51.229907032102" lon="4.4582498073578">
        <ele>3.2</ele>
        <time>2019-01-16T22:47:56Z</time>
      </trkpt>
      <trkpt lat="51.229944331571" lon="4.4585396535695">
        <ele>2.8</ele>
        <time>2019-01-16T22:48:03Z</time>
      </trkpt>
      <trkpt lat="51.229948271066" lon="4.4586262386292">
        <ele>2.6</ele>
        <time>2019-01-16T22:48:07Z</time>
      </trkpt>
      <trkpt lat="51.229886412621" lon="4.4583238195628">
        <ele>3.2</ele>
        <time>2019-01-16T22:48:16Z</time>
      </trkpt>
      <trkpt lat="51.229853890836" lon="4.4581505656242">
        <ele>3.4</ele>
        <time>2019-01-16T22:48:20Z</time>
      </trkpt>
    </trkseg>
  </trk>
</gpx>